LFRSESGG

Guest
Details From LFRS - Nantes Atlantique
To ESGG - Goteborg Landvetter
Flight Number -
Tags Generated
Created
Modified
Stats Distance 807 nm / 1,494 km
Max Altitude 0 ft / 0 m
Waypoints 4
Social Downloads 1
Likes 0
Share VATSIM

Download

Looking for another format? Having issues loading an existing format? Contact us
Advertisement - Login to hide

Notes

Generated

Route

LFRS KOK SL ESGG

ID Type Via Altitude Latitude Longitude Leg Dist Tot Dist Heading (true) Name
O LFRS APT - 0 ft / 0 m 47.16048˚ -1.61493˚ - 0 nm - Nantes_Atlantique
KOK VOR - 0 ft / 0 m 51.09472˚ 2.65167˚ 289 nm 289 nm 34° / 37° KOKSY VORTAC
SL NDB - 0 ft / 0 m 57.59489˚ 12.22033˚ 513 nm 803 nm 37° / 45° Landvette Goteborg NDB
O ESGG APT - 0 ft / 0 m 57.64952˚ 12.26771˚ 3 nm 806 nm 25° / 25° -

Altitude Profile

Advertisement - Login to hide

Weather


0- 5 10 15 20 25 30 35+ Temperature / ° C

Clouds and Precipitation
Forecast for 2018-05-27 12:00 UTC. Updated 5 hours ago

Ground ~20,000 ft ~40,000 ft Winds

LFRS

Details ICAO LFRS (NTE)
Name Nantes_Atlantique
Region France
Timezone Europe/Paris (UTC+2.0)
Stats Elevation 89 ft / 27 m (AMSL)
Location 47.156040° -1.611186°
Runways 2
Magnetic Variation 0.450° W

METAR

LFRS 271600Z AUTO 25009KT 230V290 CAVOK 22/16 Q1014 TEMPO -TSRA SCT040CB

Decode

TAF

TAF LFRS 271100Z 2712/2818 26006KT 9999 BKN030 PROB30 TEMPO 2715/2720 -TSRA SCT040CB TEMPO 2800/2807 3000 BR BKN002 PROB30 TEMPO 2813/2818 VRB15G25KT 4000 TSRA BKN030CB

Decode

Departure Runways

ID Width Length Bearing (true) Bearing (mag) Surface Threshold Offset Overrun Length
03 148 ft / 45 m 9,526 ft / 2,903 m 27.35° 27.80° Asphalt 0 ft / 0 m 0 ft / 0 m
13 100 ft / 30 m 1,999 ft / 609 m 125.55° 126.00° Concrete 0 ft / 0 m 0 ft / 0 m
21 148 ft / 45 m 9,526 ft / 2,903 m 207.37° 207.82° Asphalt 689 ft / 210 m 0 ft / 0 m
31 100 ft / 30 m 1,999 ft / 609 m 305.56° 306.01° Concrete 0 ft / 0 m 0 ft / 0 m

ESGG

Details ICAO ESGG (GOT)
Name Goteborg Landvetter
Region Sweden
Timezone Europe/Stockholm (UTC+2.0)
Stats Elevation 506 ft / 154 m (AMSL)
Location 57.662836° 12.279819°
Runways 1
Magnetic Variation 3.785° E

METAR

ESGG 271550Z 18005KT CAVOK 20/11 Q1027

Decode

TAF

TAF AMD ESGG 271423Z 2714/2812 13007KT CAVOK TEMPO 2715/2718 SHRA BKN045CB

Decode

Destination Runways

ID Width Length Bearing (true) Bearing (mag) Surface Threshold Offset Overrun Length
03 148 ft / 45 m 10,804 ft / 3,293 m 25.94° 22.15° Asphalt 0 ft / 0 m 207 ft / 63 m
21 148 ft / 45 m 10,804 ft / 3,293 m 205.96° 202.17° Asphalt 0 ft / 0 m 207 ft / 63 m

Approach Navaids

Runway Type Ident Frequency Range Bearing (true) Bearing (mag) Slope Elevation
03 Localiser SSG 110.30 MHz 18 nm / 33 km 25.98° 22.19° - 506 ft / 154 m (AMSL)
03 Glidescope SSG 110.30 MHz 10 nm / 19 km 25.95° 22.17° 3.00° 506 ft / 154 m (AMSL)
21 Localiser NGG 108.50 MHz 18 nm / 33 km 205.92° 202.14° - 506 ft / 154 m (AMSL)
21 Glidescope NGG 108.50 MHz 10 nm / 19 km 205.95° 202.17° 3.00° 506 ft / 154 m (AMSL)